地図

経路データ

SID SEASON NUMBER BASIN SUBBASIN NAME ISO_TIME NATURE LAT LON WMO_WIND WMO_PRES WMO_AGENCY TRACK_TYPE DIST2LAND LANDFALL IFLAG USA_AGENCY USA_ATCF_ID USA_LAT USA_LON USA_RECORD USA_STATUS USA_WIND USA_PRES USA_SSHS USA_R34_NE USA_R34_SE USA_R34_SW USA_R34_NW USA_R50_NE USA_R50_SE USA_R50_SW USA_R50_NW USA_R64_NE USA_R64_SE USA_R64_SW USA_R64_NW USA_POCI USA_ROCI USA_RMW USA_EYE TOKYO_LAT TOKYO_LON TOKYO_GRADE TOKYO_WIND TOKYO_PRES TOKYO_R50_DIR TOKYO_R50_LONG TOKYO_R50_SHORT TOKYO_R30_DIR TOKYO_R30_LONG TOKYO_R30_SHORT TOKYO_LAND CMA_LAT CMA_LON CMA_CAT CMA_WIND CMA_PRES HKO_LAT HKO_LON HKO_CAT HKO_WIND HKO_PRES NEWDELHI_LAT NEWDELHI_LON NEWDELHI_GRADE NEWDELHI_WIND NEWDELHI_PRES NEWDELHI_CI NEWDELHI_DP NEWDELHI_POCI REUNION_LAT REUNION_LON REUNION_TYPE REUNION_WIND REUNION_PRES REUNION_TNUM REUNION_CI REUNION_RMW REUNION_R34_NE REUNION_R34_SE REUNION_R34_SW REUNION_R34_NW REUNION_R50_NE REUNION_R50_SE REUNION_R50_SW REUNION_R50_NW REUNION_R64_NE REUNION_R64_SE REUNION_R64_SW REUNION_R64_NW BOM_LAT BOM_LON BOM_TYPE BOM_WIND BOM_PRES BOM_TNUM BOM_CI BOM_RMW BOM_R34_NE BOM_R34_SE BOM_R34_SW BOM_R34_NW BOM_R50_NE BOM_R50_SE BOM_R50_SW BOM_R50_NW BOM_R64_NE BOM_R64_SE BOM_R64_SW BOM_R64_NW BOM_ROCI BOM_POCI BOM_EYE BOM_POS_METHOD BOM_PRES_METHOD NADI_LAT NADI_LON NADI_CAT NADI_WIND NADI_PRES WELLINGTON_LAT WELLINGTON_LON WELLINGTON_WIND WELLINGTON_PRES DS824_LAT DS824_LON DS824_STAGE DS824_WIND DS824_PRES TD9636_LAT TD9636_LON TD9636_STAGE TD9636_WIND TD9636_PRES TD9635_LAT TD9635_LON TD9635_WIND TD9635_PRES TD9635_ROCI NEUMANN_LAT NEUMANN_LON NEUMANN_CLASS NEUMANN_WIND NEUMANN_PRES MLC_LAT MLC_LON MLC_CLASS MLC_WIND MLC_PRES USA_GUST BOM_GUST BOM_GUST_PER REUNION_GUST REUNION_GUST_PER USA_SEAHGT USA_SEARAD_NE USA_SEARAD_SE USA_SEARAD_SW USA_SEARAD_NW STORM_SPEED STORM_DIR
2022182N32278 2022 35 NA NA COLIN 2022-06-30 18:00:00 NR 32.1000 -82.0000 PROVISIONAL 0 0 O_____________ nhc_working_bt AL032022 32.1000 -82.0000 DB 25 1017 -3 1018 120 50 3 127
2022182N32278 2022 35 NA NA COLIN 2022-06-30 21:00:00 NR 32.0026 -81.8474 PROVISIONAL 0 0 P_____________ AL032022 32.0026 -81.8474 DB 25 1017 -3 1018 120 50 3 128
2022182N32278 2022 35 NA NA COLIN 2022-07-01 00:00:00 NR 31.9000 -81.7000 PROVISIONAL 0 0 O_____________ nhc_working_bt AL032022 31.9000 -81.7000 DB 25 1017 -3 1018 120 50 3 130
2022182N32278 2022 35 NA NA COLIN 2022-07-01 03:00:00 NR 31.7925 -81.5575 PROVISIONAL 0 0 P_____________ AL032022 31.7925 -81.5575 DB 25 1017 -3 1018 120 50 3 128
2022182N32278 2022 35 NA NA COLIN 2022-07-01 06:00:00 NR 31.7000 -81.4000 PROVISIONAL 0 0 O_____________ nhc_working_bt AL032022 31.7000 -81.4000 DB 25 1017 -3 1018 120 50 3 121
2022182N32278 2022 35 NA NA COLIN 2022-07-01 09:00:00 NR 31.6200 -81.2149 PROVISIONAL 0 0 P_____________ AL032022 31.6200 -81.2149 DB 25 1017 -3 1018 120 50 4 106
2022182N32278 2022 35 NA NA COLIN 2022-07-01 12:00:00 NR 31.6000 -81.0000 PROVISIONAL 18 18 O_____________ nhc_working_bt AL032022 31.6000 -81.0000 DB 25 1017 -3 1018 120 50 4 88
2022182N32278 2022 35 NA NA COLIN 2022-07-01 15:00:00 NR 31.6326 -80.7350 PROVISIONAL 38 29 P_____________ AL032022 31.6326 -80.7350 DB 27 1016 -3 1018 120 50 5 65
2022182N32278 2022 35 NA NA COLIN 2022-07-01 18:00:00 DS 31.8000 -80.5000 PROVISIONAL 39 21 O_____________ nhc_working_bt AL032022 31.8000 -80.5000 LO 30 1016 -3 1018 120 50 6 27
2022182N32278 2022 35 NA NA COLIN 2022-07-01 21:00:00 DS 32.1848 -80.3998 PROVISIONAL 21 0 P_____________ AL032022 32.1848 -80.3998 LO 32 1014 -3 1017 120 50 8 12
2022182N32278 2022 35 NA NA COLIN 2022-07-02 00:00:00 DS 32.6000 -80.3000 PROVISIONAL 0 0 O_____________ nhc_working_bt AL032022 32.6000 -80.3000 LO 35 1012 -3 40 60 1016 120 50 7 24
2022182N32278 2022 35 NA NA COLIN 2022-07-02 03:00:00 DS 32.8225 -80.0723 PROVISIONAL 0 0 P_____________ AL032022 32.8225 -80.0723 LO 35 1012 -3 40 60 1016 115 50 6 46
2022182N32278 2022 35 NA NA COLIN 2022-07-02 06:00:00 TS 33.0000 -79.8000 PROVISIONAL 0 0 O_____________ nhc_working_bt AL032022 33.0000 -79.8000 TS 35 1012 0 40 60 1017 110 50 45 6 45
2022182N32278 2022 35 NA NA COLIN 2022-07-02 09:00:00 TS 33.2638 -79.5390 PROVISIONAL 0 0 P_____________ AL032022 33.2575 -79.5426 TS 35 1012 0 45 65 1017 105 50 7 40
2022182N32278 2022 35 NA NA COLIN 2022-07-02 12:00:00 TS 33.5000 -79.3000 PROVISIONAL 0 0 O_____________ nhc_working_bt AL032022 33.5000 -79.3000 TS 35 1012 0 50 70 1017 100 50 45 5 42
2022182N32278 2022 35 NA NA COLIN 2022-07-02 15:00:00 TS 33.6623 -79.1072 PROVISIONAL 0 0 P_____________ AL032022 33.6573 -79.1071 TS 35 1013 0 45 70 1017 100 50 4 48
2022182N32278 2022 35 NA NA COLIN 2022-07-02 18:00:00 TS 33.8000 -78.9000 PROVISIONAL 0 0 O_____________ nhc_working_bt AL032022 33.8000 -78.9000 TS 35 1014 0 40 70 1017 100 50 45 5 55
2022182N32278 2022 35 NA NA COLIN 2022-07-02 21:00:00 TS 33.9390 -78.6370 PROVISIONAL 0 0 P_____________ AL032022 33.9773 -78.6371 TS 32 1014 -1 1017 100 50 6 56
2022182N32278 2022 35 NA NA COLIN 2022-07-03 00:00:00 TS 34.1333 -78.3000 PROVISIONAL 0 0 O_____________ nhc_working_bt AL032022 34.2000 -78.3000 TD 30 1014 -1 1017 100 50 40 12 120 8 52
2022182N32278 2022 35 NA NA COLIN 2022-07-03 03:00:00 TS 34.4346 -77.8762 PROVISIONAL 0 0 P_____________ AL032022 34.4830 -77.8759 TD 27 1014 -1 1016 100 60 10 48
2022182N32278 2022 35 NA NA COLIN 2022-07-03 06:00:00 NR 34.8000 -77.4000 PROVISIONAL 0 O_____________ nhc_working_bt AL032022 34.8000 -77.4000 DB 25 1014 -3 1016 100 70 35 11 47

IBTrACS Databaseについて

本データベースは、米国NOAAが公開する1842年以降の世界の熱帯低気圧のベストトラックデータアーカイブInternational Best Track Archive for Climate Stewardship (IBTrACS)を、ウェブで閲覧しやすい形式に変換したものです。

最終更新日:2022-08-18